Preview of NWS' New Version of Forecast
This preview is not operational and should not be used for support decisions.

Terminal Aerodrome Forecast (TAF)

Issued by National Weather Service (NWS)

                            
000
FTUS42 KKEY 211110 AAC
TAFMTH
TAF AMD
KMTH 211110Z 2111/2206 01012G19KT P6SM SCT015
      TEMPO 2111/2112 BKN015
     FM211400 03011G18KT P6SM SKC
     FM220300 05010KT P6SM SCT030=